Time;durP1;ratioP1;P1;durP2;ratioP2;P2;SDS_P1;SDS_P2;PMS_P1;PMS_P2;Temp;Humidity;BMP_temperature;BMP_pressure;BME280_temperature;BME280_humidity;BME280_pressure;Samples;Min_cycle;Max_cycle;Signal;HPM_P1;HPM_P2
2023/07/21 00:00:58;;;;;;;2.38;1.42;;;18.50;81.60;;;;;;5024688;28;20040;-65
2023/07/21 00:03:45;;;;;;;4.80;1.80;;;18.40;81.80;;;;;;5029223;28;20037;-65
2023/07/21 00:06:31;;;;;;;2.78;1.70;;;18.40;82.00;;;;;;5030312;28;20525;-65
2023/07/21 00:09:17;;;;;;;3.08;1.83;;;18.30;82.10;;;;;;5026458;28;20049;-65
2023/07/21 00:12:03;;;;;;;2.92;1.48;;;18.30;82.40;;;;;;5012361;28;20029;-65
2023/07/21 00:14:49;;;;;;;4.57;1.90;;;18.30;82.70;;;;;;5013530;28;20088;-68
2023/07/21 00:17:35;;;;;;;3.90;1.83;;;18.20;83.00;;;;;;5017162;28;20026;-68
2023/07/21 00:20:21;;;;;;;2.13;1.60;;;18.20;83.30;;;;;;5017332;28;20060;-67
2023/07/21 00:23:07;;;;;;;4.32;2.08;;;18.20;83.50;;;;;;5031702;28;20041;-67
2023/07/21 00:25:55;;;;;;;2.45;1.52;;;18.20;83.50;;;;;;5028533;28;20619;-67
2023/07/21 00:28:40;;;;;;;3.60;1.65;;;18.20;83.70;;;;;;5026217;28;20038;-67
2023/07/21 00:31:27;;;;;;;7.22;3.00;;;18.20;83.50;;;;;;5010679;28;20507;-66
2023/07/21 00:34:13;;;;;;;5.25;1.63;;;18.20;83.60;;;;;;5024847;28;20037;-66
2023/07/21 00:36:59;;;;;;;4.25;2.15;;;18.20;83.60;;;;;;5031921;28;20083;-69
2023/07/21 00:39:45;;;;;;;2.50;1.58;;;18.20;83.70;;;;;;5030536;28;20029;-69
2023/07/21 00:42:31;;;;;;;3.33;1.65;;;18.20;83.70;;;;;;5028028;28;20084;-70
2023/07/21 00:45:17;;;;;;;4.22;1.90;;;18.20;83.70;;;;;;5018775;28;20495;-70
2023/07/21 00:48:07;;;;;;;2.55;1.48;;;18.20;83.80;;;;;;5012016;28;20115;-68
2023/07/21 00:50:53;;;;;;;3.17;1.67;;;18.20;83.80;;;;;;5025569;28;20037;-71
2023/07/21 00:53:39;;;;;;;3.38;1.88;;;18.20;83.70;;;;;;5028289;28;20068;-70
2023/07/21 00:56:26;;;;;;;3.60;1.50;;;18.20;83.50;;;;;;5011504;28;20037;-70
2023/07/21 00:59:13;;;;;;;3.92;1.70;;;18.20;83.60;;;;;;5023085;28;20067;-70
2023/07/21 01:01:59;;;;;;;2.80;1.52;;;18.10;83.60;;;;;;5028173;28;20114;-69
2023/07/21 01:04:46;;;;;;;6.55;1.80;;;18.10;83.70;;;;;;5028372;28;20061;-68
2023/07/21 01:07:33;;;;;;;4.07;1.60;;;18.10;83.80;;;;;;5039952;28;20030;-69
2023/07/21 01:10:20;;;;;;;3.33;2.10;;;18.10;83.60;;;;;;5023777;28;20052;-69
2023/07/21 01:13:07;;;;;;;2.40;1.40;;;18.10;83.80;;;;;;5025589;28;20041;-70
2023/07/21 01:15:55;;;;;;;3.08;1.60;;;18.00;84.00;;;;;;5026908;28;20429;-71
2023/07/21 01:18:43;;;;;;;3.05;1.50;;;18.00;84.20;;;;;;5030649;28;20033;-60
2023/07/21 01:21:40;;;;;;;3.78;1.50;;;17.90;84.40;;;;;;5020560;28;20069;-60
2023/07/21 01:24:28;;;;;;;2.65;1.30;;;17.90;84.60;;;;;;5012458;28;20034;-60
2023/07/21 01:27:17;;;;;;;2.70;1.52;;;17.90;84.70;;;;;;5024556;28;20069;-60
2023/07/21 01:30:06;;;;;;;3.30;1.70;;;17.90;84.80;;;;;;5020200;28;20037;-61
2023/07/21 01:32:53;;;;;;;2.08;1.20;;;17.90;84.90;;;;;;5018812;28;20025;-59
2023/07/21 01:35:40;;;;;;;3.28;1.63;;;17.80;85.10;;;;;;5025554;28;20505;-63
2023/07/21 01:38:27;;;;;;;3.03;1.25;;;17.80;85.50;;;;;;5023980;28;20042;-60
2023/07/21 01:41:20;;;;;;;2.80;1.70;;;17.70;85.90;;;;;;5028158;28;20083;-63
2023/07/21 01:44:07;;;;;;;2.10;1.35;;;17.70;86.20;;;;;;5028463;28;20112;-61
2023/07/21 01:46:54;;;;;;;3.85;2.10;;;17.60;86.30;;;;;;5011078;28;20058;-64
2023/07/21 01:49:40;;;;;;;5.80;1.60;;;17.60;86.70;;;;;;5012963;28;20030;-61
2023/07/21 01:52:28;;;;;;;3.05;1.85;;;17.50;86.90;;;;;;5022140;28;20029;-60
2023/07/21 01:55:32;;;;;;;3.88;1.42;;;17.50;87.20;;;;;;5027657;28;20049;-60
2023/07/21 01:58:20;;;;;;;2.60;1.52;;;17.50;87.40;;;;;;5010376;28;20030;-61
2023/07/21 02:01:07;;;;;;;3.38;1.80;;;17.50;87.40;;;;;;5017761;28;20045;-61
2023/07/21 02:03:53;;;;;;;3.38;1.20;;;17.50;87.60;;;;;;5023326;28;20028;-61
2023/07/21 02:06:40;;;;;;;4.95;1.77;;;17.40;88.00;;;;;;5012904;28;20041;-61
2023/07/21 02:09:26;;;;;;;3.22;1.90;;;17.40;88.10;;;;;;5013798;28;20061;-61
2023/07/21 02:12:13;;;;;;;3.33;1.58;;;17.40;88.40;;;;;;5010501;28;20438;-61
2023/07/21 02:14:59;;;;;;;2.53;1.83;;;17.40;88.50;;;;;;5017762;28;20087;-61
2023/07/21 02:17:45;;;;;;;1.58;1.10;;;17.40;88.60;;;;;;5020622;28;20498;-61
2023/07/21 02:20:31;;;;;;;2.83;1.50;;;17.40;88.60;;;;;;5024756;28;20042;-61
2023/07/21 02:23:17;;;;;;;1.92;1.38;;;17.40;88.60;;;;;;5027512;28;20041;-61
2023/07/21 02:26:03;;;;;;;3.70;1.52;;;17.40;88.50;;;;;;5010766;28;20046;-61
2023/07/21 02:28:49;;;;;;;2.60;1.42;;;17.40;88.50;;;;;;5009939;28;20099;-61
2023/07/21 02:31:35;;;;;;;1.95;1.30;;;17.40;88.50;;;;;;5028181;28;20502;-63
2023/07/21 02:34:21;;;;;;;3.72;1.58;;;17.50;88.60;;;;;;5019242;28;20030;-61
2023/07/21 02:37:07;;;;;;;2.30;1.33;;;17.40;88.50;;;;;;5028962;28;20079;-61
2023/07/21 02:39:53;;;;;;;3.17;1.20;;;17.40;88.50;;;;;;5019906;28;20026;-62
2023/07/21 02:42:39;;;;;;;2.22;1.10;;;17.40;88.90;;;;;;5013005;28;20048;-62
2023/07/21 02:45:25;;;;;;;4.35;1.58;;;17.40;88.90;;;;;;5015630;28;20613;-61
2023/07/21 02:48:11;;;;;;;1.77;1.27;;;17.40;89.00;;;;;;5010084;28;20045;-61
2023/07/21 02:50:58;;;;;;;3.00;1.65;;;17.40;89.00;;;;;;5019430;28;20033;-61
2023/07/21 02:53:45;;;;;;;3.42;2.05;;;17.40;89.10;;;;;;5008031;28;20117;-61
2023/07/21 02:56:34;;;;;;;2.80;1.50;;;17.30;89.80;;;;;;5020997;28;20037;-59
2023/07/21 02:59:23;;;;;;;3.63;1.40;;;17.20;89.70;;;;;;5012787;28;20101;-59
2023/07/21 03:02:09;;;;;;;4.00;1.50;;;17.20;90.00;;;;;;5022030;28;20041;-62
2023/07/21 03:04:55;;;;;;;3.25;1.70;;;17.20;90.00;;;;;;5026060;28;20092;-60
2023/07/21 03:07:41;;;;;;;3.75;1.73;;;17.10;90.10;;;;;;5023025;28;20032;-62
2023/07/21 03:10:27;;;;;;;3.60;1.60;;;17.10;90.20;;;;;;5025589;28;20410;-60
2023/07/21 03:13:13;;;;;;;4.43;1.52;;;17.10;90.30;;;;;;5028490;28;20037;-68
2023/07/21 03:16:00;;;;;;;2.50;1.55;;;17.10;90.50;;;;;;5025735;28;20033;-68
2023/07/21 03:18:46;;;;;;;2.10;1.45;;;17.00;90.60;;;;;;5026752;28;20046;-68
2023/07/21 03:21:32;;;;;;;3.08;1.88;;;17.00;90.70;;;;;;5009404;28;20038;-66
2023/07/21 03:24:18;;;;;;;3.40;1.67;;;17.00;90.80;;;;;;5010815;28;20041;-66
2023/07/21 03:27:04;;;;;;;4.35;2.03;;;17.00;90.90;;;;;;5018882;28;20036;-67
2023/07/21 03:29:53;;;;;;;2.72;1.55;;;16.90;91.00;;;;;;5024508;28;20033;-68
2023/07/21 03:32:39;;;;;;;2.75;1.60;;;16.90;91.20;;;;;;5008700;28;20042;-66
2023/07/21 03:35:25;;;;;;;2.28;1.48;;;16.90;91.20;;;;;;5008867;28;20034;-66
2023/07/21 03:38:11;;;;;;;2.15;1.27;;;17.00;91.30;;;;;;5009453;28;20084;-66
2023/07/21 03:41:06;;;;;;;3.15;1.73;;;17.00;91.30;;;;;;5016832;28;20037;-60
2023/07/21 03:43:52;;;;;;;5.82;2.35;;;17.00;91.40;;;;;;5018069;28;20117;-59
2023/07/21 03:46:38;;;;;;;3.35;1.60;;;17.00;91.50;;;;;;5020989;28;20412;-59
2023/07/21 03:49:23;;;;;;;2.72;2.03;;;17.00;91.60;;;;;;5012632;28;20081;-59
2023/07/21 03:52:10;;;;;;;3.42;1.75;;;17.00;91.60;;;;;;5028458;28;20044;-59
2023/07/21 03:54:56;;;;;;;3.40;1.80;;;17.00;91.70;;;;;;5018663;28;20038;-60
2023/07/21 03:57:42;;;;;;;5.50;2.00;;;17.00;91.80;;;;;;5002592;28;20037;-60
2023/07/21 04:00:29;;;;;;;3.85;1.77;;;17.10;91.80;;;;;;5019657;28;20030;-60
2023/07/21 04:03:17;;;;;;;3.42;1.83;;;17.10;91.90;;;;;;5027408;28;20037;-60
2023/07/21 04:06:07;;;;;;;3.72;1.65;;;17.20;92.20;;;;;;5012558;28;20042;-60
2023/07/21 04:08:53;;;;;;;3.45;2.08;;;17.20;92.00;;;;;;5012946;28;20092;-60
2023/07/21 04:11:40;;;;;;;2.60;1.92;;;17.20;92.00;;;;;;5032340;28;20486;-60
2023/07/21 04:14:26;;;;;;;4.38;2.00;;;17.20;92.30;;;;;;5021503;28;20025;-60
2023/07/21 04:17:12;;;;;;;4.05;1.70;;;17.20;92.20;;;;;;5032087;28;20042;-61
2023/07/21 04:19:58;;;;;;;4.20;1.70;;;17.30;92.20;;;;;;5025424;28;20056;-60
2023/07/21 04:22:44;;;;;;;4.47;1.80;;;17.30;92.40;;;;;;5032173;28;20091;-60
2023/07/21 04:25:32;;;;;;;3.55;1.75;;;17.30;92.30;;;;;;5026028;28;20273;-60
2023/07/21 04:28:18;;;;;;;3.47;1.65;;;17.40;92.40;;;;;;5031396;28;20439;-60
2023/07/21 04:31:03;;;;;;;3.15;1.85;;;17.40;92.40;;;;;;5022892;28;20033;-60
2023/07/21 04:33:49;;;;;;;2.90;1.75;;;17.40;92.40;;;;;;5029132;28;20091;-60
2023/07/21 04:36:35;;;;;;;5.00;1.98;;;17.50;92.50;;;;;;5024466;28;20379;-66
2023/07/21 04:39:21;;;;;;;5.00;2.55;;;17.60;92.50;;;;;;5024639;28;20041;-66
2023/07/21 04:42:11;;;;;;;6.05;2.55;;;17.60;92.40;;;;;;5024674;28;20045;-66
2023/07/21 04:44:57;;;;;;;4.70;2.72;;;17.60;92.40;;;;;;5026709;28;20140;-67
2023/07/21 04:47:43;;;;;;;17.25;3.33;;;17.70;92.30;;;;;;5031598;28;20029;-67
2023/07/21 04:50:29;;;;;;;8.75;2.85;;;17.70;92.20;;;;;;5024243;28;20213;-70
2023/07/21 04:53:15;;;;;;;6.45;2.72;;;17.80;92.30;;;;;;5032245;28;20033;-66
2023/07/21 04:56:01;;;;;;;6.35;2.60;;;17.90;92.30;;;;;;5029877;28;20040;-66
2023/07/21 04:58:47;;;;;;;4.95;2.35;;;17.90;92.20;;;;;;5022412;28;20054;-67
2023/07/21 05:01:33;;;;;;;4.35;2.28;;;18.00;92.20;;;;;;5022783;28;20037;-67
2023/07/21 05:04:19;;;;;;;5.22;2.40;;;18.10;92.10;;;;;;5020004;28;20120;-67
2023/07/21 05:07:05;;;;;;;5.55;2.58;;;18.20;92.10;;;;;;5021204;28;20524;-68
2023/07/21 05:09:51;;;;;;;4.53;2.30;;;18.30;92.00;;;;;;5023687;28;20064;-68
2023/07/21 05:12:37;;;;;;;7.95;2.88;;;18.30;91.90;;;;;;5030126;28;20037;-67
2023/07/21 05:15:24;;;;;;;4.20;2.72;;;18.40;91.90;;;;;;5030048;28;20033;-68
2023/07/21 05:18:10;;;;;;;6.13;3.40;;;18.40;91.90;;;;;;5011279;28;20153;-67
2023/07/21 05:20:56;;;;;;;5.93;2.35;;;18.40;91.50;;;;;;5022795;28;20112;-68
2023/07/21 05:23:42;;;;;;;7.80;3.50;;;18.40;91.40;;;;;;5016485;28;20041;-68
2023/07/21 05:26:29;;;;;;;4.95;2.63;;;18.40;91.50;;;;;;5029846;28;20045;-68
2023/07/21 05:29:15;;;;;;;8.25;3.35;;;18.40;91.30;;;;;;5027929;28;20037;-67
2023/07/21 05:32:03;;;;;;;3.95;2.45;;;18.40;91.40;;;;;;5013880;28;20120;-67
2023/07/21 05:34:49;;;;;;;4.90;2.78;;;18.40;91.50;;;;;;5027833;28;20508;-67
2023/07/21 05:37:35;;;;;;;10.35;3.03;;;18.50;91.60;;;;;;5027572;28;20037;-67
2023/07/21 05:40:21;;;;;;;6.00;3.17;;;18.50;91.50;;;;;;5019397;28;20112;-68
2023/07/21 05:43:08;;;;;;;7.47;2.92;;;18.50;91.40;;;;;;5027550;28;20104;-62
2023/07/21 05:45:54;;;;;;;13.02;3.00;;;18.50;91.40;;;;;;5028251;28;20045;-60
2023/07/21 05:48:41;;;;;;;10.38;3.50;;;18.50;91.30;;;;;;5022663;28;20037;-62
2023/07/21 05:51:27;;;;;;;7.50;3.08;;;18.50;91.20;;;;;;5018683;28;20059;-62
2023/07/21 05:54:13;;;;;;;6.30;3.08;;;18.60;91.20;;;;;;5021855;28;20491;-62
2023/07/21 05:56:59;;;;;;;4.65;3.00;;;18.60;91.30;;;;;;5031082;28;20440;-61
2023/07/21 05:59:45;;;;;;;8.73;3.72;;;18.70;91.30;;;;;;5023036;28;20108;-61
2023/07/21 06:02:31;;;;;;;7.72;3.42;;;18.80;91.10;;;;;;5013830;28;20041;-60
2023/07/21 06:05:18;;;;;;;6.15;3.53;;;18.90;90.90;;;;;;5018051;28;20176;-61
2023/07/21 06:08:04;;;;;;;12.13;3.67;;;18.90;90.90;;;;;;5015989;28;20132;-61
2023/07/21 06:11:00;;;;;;;7.28;3.55;;;18.90;91.10;;;;;;5022766;28;20033;-61
2023/07/21 06:13:46;;;;;;;11.95;4.30;;;19.00;91.00;;;;;;5028166;28;20041;-61
2023/07/21 06:16:32;;;;;;;7.95;4.45;;;19.00;91.20;;;;;;5023831;28;20030;-61
2023/07/21 06:19:18;;;;;;;5.25;3.67;;;19.10;91.30;;;;;;5021056;28;20121;-61
2023/07/21 06:22:05;;;;;;;7.60;3.58;;;19.10;91.10;;;;;;5038802;28;20044;-61
2023/07/21 06:24:50;;;;;;;6.57;4.30;;;19.20;91.00;;;;;;5020045;28;20061;-61
2023/07/21 06:27:36;;;;;;;6.60;3.30;;;19.20;90.90;;;;;;5021649;28;20041;-61
2023/07/21 06:30:22;;;;;;;5.70;3.33;;;19.30;90.70;;;;;;5026092;28;20029;-61
2023/07/21 06:33:08;;;;;;;3.90;3.10;;;19.30;90.70;;;;;;5026341;28;20405;-61
2023/07/21 06:35:54;;;;;;;3.83;2.65;;;19.40;90.70;;;;;;5030257;28;20045;-62
2023/07/21 06:38:40;;;;;;;6.28;3.53;;;19.50;90.50;;;;;;5035797;28;20045;-61
2023/07/21 06:41:26;;;;;;;6.35;3.70;;;19.50;90.40;;;;;;5028495;28;20458;-62
2023/07/21 06:44:12;;;;;;;7.38;4.80;;;19.50;90.10;;;;;;5014586;28;20026;-61
2023/07/21 06:46:58;;;;;;;6.70;4.07;;;19.50;90.10;;;;;;5021531;28;20121;-61
2023/07/21 06:49:45;;;;;;;6.65;4.57;;;19.60;90.00;;;;;;5019980;28;20084;-61
2023/07/21 06:52:31;;;;;;;8.30;5.15;;;19.60;89.90;;;;;;5024771;28;20056;-61
2023/07/21 06:55:17;;;;;;;10.25;4.82;;;19.60;89.60;;;;;;5020568;28;20132;-61
2023/07/21 06:58:02;;;;;;;10.18;5.25;;;19.60;89.50;;;;;;5028192;28;20052;-61
2023/07/21 07:00:48;;;;;;;8.45;5.53;;;19.70;89.30;;;;;;5016439;28;20033;-61
2023/07/21 07:03:35;;;;;;;8.40;5.15;;;19.80;89.00;;;;;;5025137;28;20037;-61
2023/07/21 07:06:21;;;;;;;7.45;5.30;;;19.80;88.80;;;;;;5022811;28;20042;-60
2023/07/21 07:09:08;;;;;;;10.32;5.97;;;19.90;88.50;;;;;;5021699;28;20054;-61
2023/07/21 07:11:54;;;;;;;9.20;5.43;;;20.00;87.90;;;;;;5021149;28;20087;-60
2023/07/21 07:14:40;;;;;;;7.65;5.50;;;20.00;87.40;;;;;;5017292;28;20056;-60
2023/07/21 07:17:26;;;;;;;9.30;4.93;;;20.00;87.50;;;;;;5025913;28;20025;-59
2023/07/21 07:20:12;;;;;;;8.75;5.32;;;20.00;87.20;;;;;;5018916;28;20041;-60
2023/07/21 07:22:58;;;;;;;9.00;4.93;;;20.00;87.30;;;;;;5018554;28;20054;-60
2023/07/21 07:25:48;;;;;;;8.18;5.22;;;19.90;87.20;;;;;;5011012;28;20557;-59
2023/07/21 07:28:34;;;;;;;8.80;4.32;;;19.90;87.40;;;;;;5019827;28;20033;-60
2023/07/21 07:31:20;;;;;;;8.02;4.60;;;19.90;87.90;;;;;;5018981;28;20044;-60
2023/07/21 07:34:06;;;;;;;9.30;4.97;;;20.00;88.20;;;;;;5021492;28;20117;-61
2023/07/21 07:36:52;;;;;;;7.28;4.82;;;20.00;88.30;;;;;;5020150;28;20553;-60
2023/07/21 07:39:38;;;;;;;7.88;4.63;;;20.00;88.50;;;;;;5026365;28;20033;-61
2023/07/21 07:42:24;;;;;;;7.80;4.65;;;20.10;88.30;;;;;;5021196;28;20045;-63
2023/07/21 07:45:10;;;;;;;8.90;5.03;;;20.10;88.40;;;;;;5014365;28;20045;-63
2023/07/21 07:47:56;;;;;;;19.20;4.88;;;20.20;88.60;;;;;;5019650;28;20071;-62
2023/07/21 07:50:42;;;;;;;6.90;4.85;;;20.30;88.40;;;;;;5013849;28;20030;-61
2023/07/21 07:53:29;;;;;;;8.98;5.07;;;20.40;88.60;;;;;;5025747;28;20029;-61
2023/07/21 07:56:15;;;;;;;13.10;5.18;;;20.50;88.60;;;;;;5027369;28;20363;-61
2023/07/21 07:59:01;;;;;;;6.10;4.15;;;20.60;87.80;;;;;;5025262;28;20053;-63
2023/07/21 08:01:47;;;;;;;9.23;4.38;;;20.70;87.50;;;;;;5027037;28;20585;-64
2023/07/21 08:04:33;;;;;;;5.85;4.22;;;20.80;87.30;;;;;;5021029;28;20088;-65
2023/07/21 08:07:19;;;;;;;13.98;4.97;;;20.90;86.70;;;;;;5025698;28;20037;-64
2023/07/21 08:10:05;;;;;;;10.43;3.83;;;21.00;86.40;;;;;;5014061;28;20144;-64
2023/07/21 08:12:51;;;;;;;8.23;3.92;;;21.00;86.40;;;;;;5017984;28;20395;-64
2023/07/21 08:15:41;;;;;;;11.98;3.83;;;21.00;85.90;;;;;;5025260;28;20029;-63
2023/07/21 08:18:27;;;;;;;8.23;4.00;;;21.00;85.80;;;;;;5026891;28;20132;-63
2023/07/21 08:21:24;;;;;;;10.90;4.00;;;21.10;85.80;;;;;;5023413;28;20061;-63
2023/07/21 08:24:10;;;;;;;13.48;3.22;;;21.10;85.90;;;;;;5024265;28;20037;-63
2023/07/21 08:26:57;;;;;;;8.82;3.20;;;21.20;85.90;;;;;;5019268;28;20045;-63
2023/07/21 08:29:43;;;;;;;7.65;3.05;;;21.30;85.70;;;;;;5024246;28;20478;-63
2023/07/21 08:32:29;;;;;;;9.13;3.00;;;21.30;84.90;;;;;;5019568;28;20080;-63
2023/07/21 08:35:15;;;;;;;14.10;3.13;;;21.40;84.90;;;;;;5015150;28;20394;-63
2023/07/21 08:38:02;;;;;;;10.90;3.25;;;21.60;83.70;;;;;;5024974;28;20068;-63
2023/07/21 08:40:52;;;;;;;4.65;2.88;;;21.70;83.60;;;;;;5015260;28;20033;-63
2023/07/21 08:43:39;;;;;;;4.00;1.67;;;21.80;83.50;;;;;;5024574;28;20029;-67
2023/07/21 08:46:25;;;;;;;3.80;1.40;;;21.90;82.50;;;;;;5010275;28;20041;-67
2023/07/21 08:49:12;;;;;;;4.53;1.42;;;22.00;82.20;;;;;;5025945;28;20527;-67
2023/07/21 08:51:58;;;;;;;5.20;2.10;;;22.00;82.20;;;;;;5021179;28;20482;-67
2023/07/21 08:54:44;;;;;;;4.15;2.38;;;22.10;82.20;;;;;;5024284;28;20754;-67
2023/07/21 08:57:31;;;;;;;3.13;1.65;;;22.10;81.50;;;;;;5018304;28;20425;-67
2023/07/21 09:00:20;;;;;;;2.60;1.40;;;22.20;81.30;;;;;;5034635;28;20402;-66
2023/07/21 09:03:06;;;;;;;2.05;1.58;;;22.30;81.60;;;;;;5024269;28;20080;-67
2023/07/21 09:05:54;;;;;;;3.13;1.55;;;22.30;80.60;;;;;;5021782;28;20041;-67
2023/07/21 09:08:40;;;;;;;3.92;1.70;;;22.30;80.10;;;;;;5016923;28;20049;-67
2023/07/21 09:11:26;;;;;;;10.70;2.60;;;22.30;80.40;;;;;;5029238;28;20041;-67
2023/07/21 09:14:12;;;;;;;4.13;1.80;;;22.20;80.40;;;;;;5021910;28;20032;-67
2023/07/21 09:16:58;;;;;;;4.10;1.73;;;22.20;80.70;;;;;;5021898;28;20100;-67
2023/07/21 09:19:45;;;;;;;5.03;1.33;;;22.20;80.50;;;;;;5011837;28;20112;-66
2023/07/21 09:22:31;;;;;;;4.25;1.67;;;22.10;80.00;;;;;;5022880;28;20046;-66
2023/07/21 09:25:22;;;;;;;2.30;1.30;;;22.00;79.50;;;;;;5025276;28;20393;-67
2023/07/21 09:28:07;;;;;;;6.57;1.70;;;22.00;80.00;;;;;;5011215;28;20042;-66
2023/07/21 09:30:53;;;;;;;4.15;1.63;;;22.00;80.50;;;;;;5022603;28;20429;-65
2023/07/21 09:33:46;;;;;;;9.55;1.42;;;22.00;79.80;;;;;;5021358;28;20112;-66
2023/07/21 09:36:32;;;;;;;5.93;2.08;;;22.00;79.70;;;;;;5026412;28;20060;-66
2023/07/21 09:39:18;;;;;;;7.55;2.35;;;22.10;80.60;;;;;;5018064;28;20037;-67
2023/07/21 09:42:05;;;;;;;5.85;1.77;;;22.10;80.30;;;;;;5027722;28;20475;-66
2023/07/21 09:44:53;;;;;;;3.40;1.60;;;22.20;80.30;;;;;;5018652;28;20272;-65
2023/07/21 09:47:40;;;;;;;3.20;1.88;;;22.40;79.80;;;;;;5024029;28;20033;-66
2023/07/21 09:50:26;;;;;;;4.30;1.77;;;22.50;80.50;;;;;;5021062;28;20072;-66
2023/07/21 09:53:19;;;;;;;5.32;1.33;;;22.50;78.30;;;;;;5024247;28;20041;-66
2023/07/21 09:56:08;;;;;;;5.22;1.67;;;22.50;78.90;;;;;;5019579;28;20045;-65
2023/07/21 09:59:00;;;;;;;3.65;1.05;;;22.60;78.40;;;;;;5027254;28;20033;-67
2023/07/21 10:01:48;;;;;;;4.68;1.58;;;22.60;77.40;;;;;;5015511;28;20454;-66
2023/07/21 10:04:35;;;;;;;2.63;1.30;;;22.60;77.60;;;;;;5017019;28;20542;-66
2023/07/21 10:07:21;;;;;;;4.65;1.65;;;22.60;77.20;;;;;;5028066;28;20168;-66
2023/07/21 10:10:08;;;;;;;5.75;1.65;;;22.60;77.00;;;;;;5025546;28;20049;-67
2023/07/21 10:12:54;;;;;;;12.18;2.28;;;22.70;77.30;;;;;;5019689;28;20556;-67
2023/07/21 10:15:45;;;;;;;7.00;1.52;;;22.70;76.00;;;;;;5011453;28;20108;-67
2023/07/21 10:18:31;;;;;;;8.20;2.08;;;22.60;76.10;;;;;;5010187;28;20116;-67
2023/07/21 10:21:18;;;;;;;99.45;15.27;;;22.60;75.80;;;;;;5009928;28;20196;-66
2023/07/21 10:24:06;;;;;;;4.63;2.28;;;22.70;76.60;;;;;;5011225;28;20065;-66
2023/07/21 10:26:56;;;;;;;7.13;1.77;;;22.80;76.40;;;;;;5009607;28;20405;-67
2023/07/21 10:29:42;;;;;;;26.00;4.78;;;22.90;76.30;;;;;;5015109;28;20509;-67
2023/07/21 10:32:28;;;;;;;14.88;3.38;;;23.00;76.60;;;;;;5029988;28;20065;-67
2023/07/21 10:35:36;;;;;;;4.18;1.83;;;23.10;76.90;;;;;;5017002;28;20041;-67
2023/07/21 10:38:24;;;;;;;9.85;1.95;;;23.20;75.80;;;;;;5009499;28;20033;-67
2023/07/21 10:41:10;;;;;;;7.97;1.67;;;23.20;75.30;;;;;;5024278;28;20037;-66
2023/07/21 10:43:56;;;;;;;8.95;2.38;;;23.20;75.30;;;;;;5009433;28;20056;-67
2023/07/21 10:46:43;;;;;;;12.18;3.15;;;23.30;75.20;;;;;;5010496;28;20180;-66
2023/07/21 10:49:29;;;;;;;58.53;9.88;;;23.30;75.30;;;;;;5011288;28;20429;-66
2023/07/21 10:52:15;;;;;;;9.38;2.80;;;23.40;75.40;;;;;;5010727;28;20069;-66
2023/07/21 10:55:01;;;;;;;28.33;5.05;;;23.50;76.10;;;;;;5017978;28;20029;-66
2023/07/21 10:57:47;;;;;;;11.32;2.30;;;23.70;76.20;;;;;;5026234;28;20077;-67
2023/07/21 11:00:50;;;;;;;14.70;3.70;;;23.80;74.80;;;;;;5008801;28;20034;-67
2023/07/21 11:03:41;;;;;;;15.93;3.13;;;23.90;74.40;;;;;;5008075;28;20506;-66
2023/07/21 11:06:27;;;;;;;36.17;6.70;;;24.00;74.60;;;;;;5010021;28;20045;-66
2023/07/21 11:09:14;;;;;;;4.93;1.50;;;24.00;74.40;;;;;;5011620;28;20082;-67
2023/07/21 11:12:00;;;;;;;7.05;2.88;;;24.00;73.00;;;;;;5009236;28;20034;-66
2023/07/21 11:14:46;;;;;;;7.82;2.47;;;24.00;73.80;;;;;;5017459;28;20109;-66
2023/07/21 11:17:32;;;;;;;8.30;2.92;;;24.00;73.90;;;;;;5032535;28;20087;-66
2023/07/21 11:20:18;;;;;;;3.70;1.65;;;23.90;73.90;;;;;;5031557;28;20048;-67
2023/07/21 11:23:04;;;;;;;7.25;2.00;;;23.90;73.60;;;;;;5033408;28;20037;-67
2023/07/21 11:26:10;;;;;;;3.65;1.55;;;23.90;73.30;;;;;;5013194;28;20045;-67
2023/07/21 11:29:01;;;;;;;3.50;1.30;;;23.80;73.80;;;;;;5013286;28;20030;-67
2023/07/21 11:31:47;;;;;;;2.10;1.33;;;23.80;73.80;;;;;;5013542;28;20037;-66
2023/07/21 11:34:37;;;;;;;3.83;1.73;;;23.70;73.90;;;;;;5013135;28;20471;-66
2023/07/21 11:37:23;;;;;;;2.97;1.73;;;23.60;74.20;;;;;;5020821;28;20022;-67
2023/07/21 11:40:15;;;;;;;3.17;1.73;;;23.60;74.50;;;;;;5017121;28;20038;-67
2023/07/21 11:43:07;;;;;;;3.03;1.65;;;23.60;75.10;;;;;;5015821;28;20468;-67
2023/07/21 11:45:54;;;;;;;2.33;1.23;;;23.60;75.90;;;;;;5014528;28;20060;-67
2023/07/21 11:48:39;;;;;;;2.88;1.50;;;23.50;75.40;;;;;;5015876;28;20038;-67
2023/07/21 11:51:26;;;;;;;3.55;1.45;;;23.50;76.30;;;;;;5033137;28;20470;-68
2023/07/21 11:54:23;;;;;;;3.85;1.58;;;23.40;76.50;;;;;;5017415;28;20534;-67
2023/07/21 11:57:11;;;;;;;2.47;1.35;;;23.40;76.90;;;;;;5012490;28;20128;-67
2023/07/21 11:59:57;;;;;;;2.50;1.70;;;23.30;77.80;;;;;;5025144;28;20112;-67
2023/07/21 12:02:43;;;;;;;3.75;1.60;;;23.20;77.30;;;;;;5030438;28;20477;-67
2023/07/21 12:05:28;;;;;;;3.95;1.83;;;23.10;77.00;;;;;;5030680;28;20042;-67
2023/07/21 12:08:15;;;;;;;4.40;2.13;;;23.00;77.20;;;;;;5032482;28;20034;-67
2023/07/21 12:11:01;;;;;;;9.00;1.75;;;22.90;77.70;;;;;;5027045;28;20041;-67
2023/07/21 12:13:47;;;;;;;2.28;1.38;;;22.90;78.30;;;;;;5031915;28;20091;-67
2023/07/21 12:16:34;;;;;;;3.25;1.90;;;22.80;77.80;;;;;;4999774;28;20047;-63
2023/07/21 12:19:20;;;;;;;3.17;1.63;;;22.70;78.50;;;;;;5011528;28;20295;-63
2023/07/21 12:22:10;;;;;;;2.33;1.30;;;22.70;78.60;;;;;;5012334;28;20030;-63
2023/07/21 12:24:56;;;;;;;5.72;2.25;;;22.70;78.70;;;;;;5018412;28;20192;-63
2023/07/21 12:27:42;;;;;;;2.78;1.50;;;22.70;78.60;;;;;;5032290;28;20026;-63
2023/07/21 12:30:28;;;;;;;5.05;1.50;;;22.70;78.00;;;;;;5017890;28;20487;-63
2023/07/21 12:33:14;;;;;;;5.93;1.95;;;22.70;77.90;;;;;;5012502;28;20053;-65
2023/07/21 12:36:00;;;;;;;9.13;1.60;;;22.60;77.50;;;;;;5023818;28;20056;-63
2023/07/21 12:38:46;;;;;;;5.18;1.50;;;22.60;77.60;;;;;;5012399;28;20113;-63
2023/07/21 12:41:32;;;;;;;6.15;2.15;;;22.60;77.30;;;;;;5012886;28;20038;-63
2023/07/21 12:44:18;;;;;;;5.53;2.20;;;22.50;77.20;;;;;;5013283;28;20038;-63
2023/07/21 12:47:05;;;;;;;9.77;2.17;;;22.60;77.50;;;;;;5012209;28;20041;-63
2023/07/21 12:49:51;;;;;;;18.15;3.00;;;22.60;78.10;;;;;;5012622;28;20042;-64
2023/07/21 12:52:37;;;;;;;6.32;2.03;;;22.60;78.50;;;;;;5011980;28;20325;-63
2023/07/21 12:55:23;;;;;;;5.45;1.50;;;22.60;78.90;;;;;;5023860;28;20045;-63
2023/07/21 12:58:09;;;;;;;2.60;1.60;;;22.70;79.80;;;;;;5031995;28;20030;-63
2023/07/21 13:00:55;;;;;;;7.32;2.28;;;22.70;79.80;;;;;;5015048;28;20076;-63
2023/07/21 13:03:41;;;;;;;5.05;2.03;;;22.70;80.00;;;;;;5011222;28;20050;-63
2023/07/21 13:06:27;;;;;;;5.60;2.25;;;22.70;80.20;;;;;;5016906;28;20042;-63
2023/07/21 13:09:13;;;;;;;8.43;2.65;;;22.80;81.10;;;;;;5013298;28;20406;-63
2023/07/21 13:11:59;;;;;;;8.13;2.42;;;22.80;80.70;;;;;;5030687;28;20053;-63
2023/07/21 13:14:45;;;;;;;5.00;2.22;;;22.90;80.20;;;;;;5029635;28;20356;-63
2023/07/21 13:17:31;;;;;;;22.65;4.00;;;22.90;79.70;;;;;;5030503;28;20037;-63
2023/07/21 13:20:17;;;;;;;9.57;2.42;;;23.00;80.00;;;;;;5017910;28;20065;-63
2023/07/21 13:23:03;;;;;;;7.07;1.90;;;23.00;78.50;;;;;;5011254;28;20049;-63
2023/07/21 13:25:49;;;;;;;10.50;1.98;;;23.00;78.30;;;;;;5025741;28;20064;-63
2023/07/21 13:28:35;;;;;;;3.20;1.50;;;23.00;78.70;;;;;;5012390;28;20034;-63
2023/07/21 13:31:21;;;;;;;5.60;1.80;;;23.00;78.30;;;;;;5011443;28;20076;-63
2023/07/21 13:34:07;;;;;;;3.38;1.80;;;23.00;78.40;;;;;;5012460;28;20052;-63
2023/07/21 13:36:53;;;;;;;9.43;1.73;;;23.10;78.00;;;;;;5029814;28;20411;-62
2023/07/21 13:39:39;;;;;;;7.80;1.48;;;23.00;78.00;;;;;;5023174;28;20033;-62
2023/07/21 13:42:25;;;;;;;5.45;1.70;;;23.10;78.60;;;;;;5011439;28;20120;-62
2023/07/21 13:45:11;;;;;;;6.93;2.15;;;23.00;78.70;;;;;;5019499;28;20041;-63
2023/07/21 13:47:57;;;;;;;6.90;1.98;;;23.00;78.80;;;;;;5021450;28;20049;-62
2023/07/21 13:50:43;;;;;;;7.38;1.70;;;23.10;79.10;;;;;;5013673;28;20050;-62
2023/07/21 13:53:29;;;;;;;6.25;1.48;;;23.10;78.60;;;;;;5024615;28;20064;-62
2023/07/21 13:56:16;;;;;;;5.00;1.58;;;23.20;79.00;;;;;;5024704;28;20034;-61
2023/07/21 13:59:02;;;;;;;3.75;1.90;;;23.30;79.30;;;;;;5011819;28;20044;-62
2023/07/21 14:01:48;;;;;;;15.38;3.92;;;23.40;79.10;;;;;;5026692;28;20029;-61
2023/07/21 14:04:34;;;;;;;12.15;2.70;;;23.50;78.60;;;;;;5023488;28;20470;-62
2023/07/21 14:07:20;;;;;;;12.40;2.90;;;23.60;78.50;;;;;;5010783;28;20041;-62
2023/07/21 14:10:06;;;;;;;7.03;2.30;;;23.70;78.20;;;;;;5018408;28;20037;-62
2023/07/21 14:12:52;;;;;;;24.52;2.65;;;23.90;78.50;;;;;;5022669;28;20470;-62
2023/07/21 14:15:39;;;;;;;2.17;1.73;;;24.20;77.90;;;;;;5023974;28;20489;-62
2023/07/21 14:18:25;;;;;;;2.38;1.38;;;24.50;76.80;;;;;;5041819;28;20692;-62
2023/07/21 14:21:11;;;;;;;2.97;1.70;;;24.70;76.50;;;;;;5026642;28;20033;-62
2023/07/21 14:24:00;;;;;;;4.93;1.67;;;24.90;75.70;;;;;;5021318;28;20108;-62
2023/07/21 14:26:46;;;;;;;1.67;1.15;;;25.10;75.70;;;;;;5023067;28;20034;-62